Rubim, Brazil
Current Conditions -  °F | °C
As of 11:00 PM on Sunday 23 Nov 2014 (Local Time) from SBPS Reporting Station
Rain Showers Rain Showers  
Wind Chill: 75°   Ceiling: Unl
Heat Index: 75°   Visibility: 6mi
Dew Point: 73°   Wind: 7mph
Humidity: 94%   Direction: 60°ENE
Pressure: 29.97"   Gusts: NA
Location:  16.37°S, 40.54°W
Report Text: SBPS 240100Z 06006KT 9999 VCSH SCT012 SCT020 24/23 Q1015
Loading
Personal Weather Stations






























Interactive Weather Map New forecast layout! Learn more

10-Day Weather Forecast

Advertisements
Track Severe Weather on mobile